Time;durP1;ratioP1;P1;durP2;ratioP2;P2;SDS_P1;SDS_P2;PMS_P1;PMS_P2;Temp;Humidity;BMP_temperature;BMP_pressure;BME280_temperature;BME280_humidity;BME280_pressure;Samples;Min_cycle;Max_cycle;Signal;HPM_P1;HPM_P2
2023/04/18 00:01:27;;;;;;;24.53;23.03;;;9.50;99.90;;;;;;5091761;28;20564;-79
2023/04/18 00:03:56;;;;;;;25.37;23.57;;;9.50;99.90;;;;;;5090914;28;20452;-79
2023/04/18 00:06:25;;;;;;;25.07;23.10;;;9.40;99.90;;;;;;5072584;28;20555;-79
2023/04/18 00:08:53;;;;;;;24.83;23.20;;;9.50;99.90;;;;;;5093793;28;20457;-80
2023/04/18 00:11:21;;;;;;;24.60;23.10;;;9.50;99.90;;;;;;5085570;28;21592;-79
2023/04/18 00:13:50;;;;;;;25.37;23.67;;;9.50;1.00;;;;;;5088426;28;21043;-79
2023/04/18 00:16:19;;;;;;;24.67;23.07;;;9.50;99.90;;;;;;5092108;28;20459;-79
2023/04/18 00:18:48;;;;;;;26.00;24.13;;;9.50;99.90;;;;;;5089685;28;20479;-79
2023/04/18 00:21:16;;;;;;;26.20;24.40;;;9.40;99.90;;;;;;5083403;28;20456;-80
2023/04/18 00:23:45;;;;;;;24.93;23.33;;;9.50;1.00;;;;;;5092915;28;20456;-78
2023/04/18 00:26:13;;;;;;;25.63;23.87;;;9.50;1.00;;;;;;5093431;28;20558;-79
2023/04/18 00:28:41;;;;;;;25.67;24.03;;;9.50;1.00;;;;;;5090172;28;20469;-79
2023/04/18 00:31:09;;;;;;;24.70;23.10;;;9.50;99.90;;;;;;5090431;28;21058;-79
2023/04/18 00:33:39;;;;;;;25.33;23.60;;;9.60;99.90;;;;;;5089390;28;20458;-79
2023/04/18 00:36:08;;;;;;;24.77;23.00;;;9.50;99.90;;;;;;5091189;28;20455;-78
2023/04/18 00:38:37;;;;;;;26.43;24.57;;;9.60;99.90;;;;;;5090847;28;20480;-78
2023/04/18 00:41:05;;;;;;;25.60;23.90;;;9.60;99.90;;;;;;5089835;28;20457;-80
2023/04/18 00:43:33;;;;;;;25.10;23.20;;;9.50;1.00;;;;;;5098214;27;20481;-80
2023/04/18 00:46:02;;;;;;;26.63;24.67;;;9.50;1.00;;;;;;5090644;28;20454;-79
2023/04/18 00:48:30;;;;;;;26.30;24.40;;;9.60;99.90;;;;;;5092701;27;20648;-79
2023/04/18 00:51:00;;;;;;;24.43;22.57;;;9.60;99.90;;;;;;5092854;28;20467;-79
2023/04/18 00:53:29;;;;;;;23.97;22.47;;;9.60;99.90;;;;;;5093009;27;20453;-79
2023/04/18 00:55:57;;;;;;;25.57;23.87;;;9.60;99.90;;;;;;5097019;28;20465;-80
2023/04/18 00:58:26;;;;;;;24.40;22.80;;;9.60;99.90;;;;;;5094663;28;20473;-79
2023/04/18 01:00:54;;;;;;;24.93;23.23;;;9.60;99.90;;;;;;5094254;27;20509;-79
2023/04/18 01:03:23;;;;;;;25.93;23.90;;;9.60;99.90;;;;;;5094600;27;20461;-80
2023/04/18 01:05:53;;;;;;;25.80;23.90;;;9.60;91.10;;;;;;5095612;28;20469;-80
2023/04/18 01:08:22;;;;;;;25.80;24.10;;;9.60;99.90;;;;;;5095556;27;20460;-79
2023/04/18 01:10:51;;;;;;;25.10;23.50;;;9.60;99.90;;;;;;5095367;28;20531;-80
2023/04/18 01:13:20;;;;;;;25.87;24.07;;;9.60;1.00;;;;;;5095657;28;20887;-80
2023/04/18 01:15:50;;;;;;;26.50;24.40;;;9.60;99.90;;;;;;5094244;28;20460;-79
2023/04/18 01:18:19;;;;;;;25.97;24.20;;;9.60;99.90;;;;;;5097617;28;20521;-80
2023/04/18 01:20:49;;;;;;;24.60;22.97;;;9.60;99.90;;;;;;5096536;28;20638;-80
2023/04/18 01:23:19;;;;;;;26.23;24.37;;;9.60;99.90;;;;;;5094705;28;20559;-80
2023/04/18 01:25:49;;;;;;;27.83;25.70;;;9.60;99.90;;;;;;5093639;28;20477;-80
2023/04/18 01:28:18;;;;;;;25.57;23.77;;;9.60;99.90;;;;;;5094032;28;20526;-80
2023/04/18 01:30:46;;;;;;;24.67;22.97;;;9.60;1.00;;;;;;5096045;28;20449;-81
2023/04/18 01:33:15;;;;;;;25.80;23.87;;;9.60;1.00;;;;;;5095900;28;20445;-81
2023/04/18 01:35:43;;;;;;;24.73;23.13;;;9.60;1.00;;;;;;5095538;27;20452;-80
2023/04/18 01:38:11;;;;;;;27.53;25.57;;;9.60;1.00;;;;;;5093709;28;20477;-81
2023/04/18 01:40:39;;;;;;;25.00;23.30;;;9.60;1.00;;;;;;5097078;28;20541;-80
2023/04/18 01:43:09;;;;;;;25.87;23.93;;;9.60;1.00;;;;;;5093681;28;20453;-80
2023/04/18 01:45:37;;;;;;;24.80;23.07;;;9.60;1.00;;;;;;5095878;28;20521;-80
2023/04/18 01:48:05;;;;;;;24.73;23.13;;;9.60;1.00;;;;;;5097521;28;20472;-80
2023/04/18 01:50:34;;;;;;;24.93;23.23;;;9.60;99.90;;;;;;5090687;27;20535;-80
2023/04/18 01:53:02;;;;;;;24.30;22.70;;;9.50;99.90;;;;;;5093185;27;20455;-79
2023/04/18 01:55:30;;;;;;;24.70;23.07;;;9.60;1.00;;;;;;5092633;28;20452;-80
2023/04/18 01:57:58;;;;;;;25.73;23.97;;;9.60;99.90;;;;;;5094386;28;20484;-80
2023/04/18 02:00:27;;;;;;;25.60;23.53;;;9.60;99.90;;;;;;5090343;28;20465;-79
2023/04/18 02:02:58;;;;;;;24.33;22.43;;;9.60;1.00;;;;;;5093974;28;21340;-80
2023/04/18 02:05:26;;;;;;;24.30;22.53;;;9.50;1.00;;;;;;5094111;28;20487;-81
2023/04/18 02:07:55;;;;;;;23.30;21.77;;;9.50;44.90;;;;;;5079113;28;20475;-81
2023/04/18 02:10:23;;;;;;;24.90;23.30;;;9.50;1.00;;;;;;5095990;28;21106;-79
2023/04/18 02:12:51;;;;;;;24.10;22.53;;;9.60;1.00;;;;;;5093917;28;20445;-80
2023/04/18 02:15:20;;;;;;;23.80;22.27;;;9.60;99.90;;;;;;5094235;28;21168;-79
2023/04/18 02:17:50;;;;;;;24.00;22.13;;;9.60;99.90;;;;;;5074561;28;20475;-80
2023/04/18 02:20:18;;;;;;;23.50;21.90;;;9.50;1.00;;;;;;5095424;28;20488;-80
2023/04/18 02:22:47;;;;;;;23.37;21.97;;;9.50;1.00;;;;;;5097679;28;20464;-80
2023/04/18 02:25:15;;;;;;;23.13;21.63;;;9.50;1.00;;;;;;5096619;27;20463;-80
2023/04/18 02:27:43;;;;;;;23.97;22.27;;;9.50;1.00;;;;;;5097455;28;20480;-79
2023/04/18 02:30:12;;;;;;;22.87;21.47;;;9.50;1.00;;;;;;5097522;28;20504;-79
2023/04/18 02:32:40;;;;;;;24.70;23.00;;;9.50;1.00;;;;;;5095283;28;20460;-79
2023/04/18 02:35:11;;;;;;;23.67;21.93;;;9.40;28.00;;;;;;5094105;28;20535;-79
2023/04/18 02:37:39;;;;;;;23.40;21.90;;;9.50;1.00;;;;;;5096489;28;20866;-79
2023/04/18 02:40:08;;;;;;;23.60;22.13;;;9.50;48.30;;;;;;5094954;28;20501;-80
2023/04/18 02:42:37;;;;;;;25.37;23.57;;;9.50;1.00;;;;;;5097209;27;20497;-79
2023/04/18 02:45:06;;;;;;;23.77;22.13;;;9.50;1.00;;;;;;5092626;28;20486;-81
2023/04/18 02:47:34;;;;;;;25.17;23.20;;;9.50;1.00;;;;;;5097490;28;20491;-81
2023/04/18 02:50:19;;;;;;;23.57;22.07;;;9.50;1.00;;;;;;5098731;28;20877;-80
2023/04/18 02:52:48;;;;;;;25.50;23.67;;;9.50;1.00;;;;;;5101706;27;20941;-80
2023/04/18 02:55:16;;;;;;;24.37;22.77;;;9.50;99.90;;;;;;5095281;28;20460;-79
2023/04/18 02:57:44;;;;;;;24.90;23.10;;;9.50;99.90;;;;;;5092505;28;20479;-80
2023/04/18 03:00:13;;;;;;;24.60;22.97;;;9.50;99.90;;;;;;5098307;28;20516;-80
2023/04/18 03:02:42;;;;;;;24.17;22.60;;;9.50;99.90;;;;;;5097241;28;20513;-80
2023/04/18 03:05:10;;;;;;;25.43;23.63;;;9.60;99.90;;;;;;5095716;28;20464;-80
2023/04/18 03:07:40;;;;;;;25.50;23.60;;;9.50;99.90;;;;;;5096348;28;20470;-80
2023/04/18 03:10:09;;;;;;;24.73;22.80;;;9.50;99.90;;;;;;5094657;28;20896;-80
2023/04/18 03:12:37;;;;;;;24.20;22.50;;;9.50;99.90;;;;;;5095010;28;21270;-81
2023/04/18 03:15:06;;;;;;;24.37;22.73;;;9.50;99.90;;;;;;5084684;28;20469;-80
2023/04/18 03:17:35;;;;;;;25.33;23.53;;;9.40;99.90;;;;;;5096628;27;20492;-81
2023/04/18 03:20:04;;;;;;;24.93;23.23;;;9.50;1.00;;;;;;5096724;28;20467;-81
2023/04/18 03:22:32;;;;;;;26.27;24.37;;;9.50;99.90;;;;;;5096916;28;20449;-81
2023/04/18 03:25:02;;;;;;;23.63;22.20;;;9.50;99.90;;;;;;5094756;28;20461;-80
2023/04/18 03:27:30;;;;;;;23.47;21.97;;;9.50;99.90;;;;;;5080025;28;20469;-81
2023/04/18 03:29:58;;;;;;;24.47;22.80;;;9.50;99.90;;;;;;5093526;28;20546;-80
2023/04/18 03:32:26;;;;;;;24.97;23.33;;;9.50;55.40;;;;;;5094378;28;20913;-80
2023/04/18 03:34:55;;;;;;;24.60;23.00;;;9.50;99.90;;;;;;5109169;27;20452;-80
2023/04/18 03:37:23;;;;;;;25.67;23.77;;;9.40;34.60;;;;;;5110046;27;20472;-79
2023/04/18 03:39:51;;;;;;;23.87;22.17;;;9.40;52.90;;;;;;5085981;28;20484;-80
2023/04/18 03:42:20;;;;;;;24.10;22.13;;;9.40;90.00;;;;;;5103726;28;20509;-80
2023/04/18 03:44:49;;;;;;;25.53;24.00;;;9.40;99.90;;;;;;5101981;28;20471;-81
2023/04/18 03:47:17;;;;;;;24.70;23.10;;;9.40;99.90;;;;;;5099923;28;20480;-80
2023/04/18 03:49:45;;;;;;;25.37;23.57;;;9.40;99.90;;;;;;5098976;28;20449;-80
2023/04/18 03:52:14;;;;;;;24.20;22.70;;;9.30;99.90;;;;;;5099940;28;20480;-81
2023/04/18 03:54:42;;;;;;;24.83;23.07;;;9.30;99.90;;;;;;5097382;28;20943;-81
2023/04/18 03:57:11;;;;;;;25.17;23.57;;;9.40;99.90;;;;;;5095141;28;20488;-81
2023/04/18 03:59:41;;;;;;;23.33;21.73;;;9.40;64.60;;;;;;5090313;28;20481;-80
2023/04/18 04:02:09;;;;;;;24.50;22.80;;;9.30;91.60;;;;;;5088875;28;20952;-80
2023/04/18 04:04:37;;;;;;;24.80;23.07;;;9.40;99.90;;;;;;5091733;28;20472;-79
2023/04/18 04:07:05;;;;;;;25.93;23.93;;;9.30;99.70;;;;;;5096148;28;20452;-81
2023/04/18 04:09:33;;;;;;;25.40;23.63;;;9.30;98.50;;;;;;5098332;28;20441;-80
2023/04/18 04:12:02;;;;;;;25.37;23.30;;;9.30;99.90;;;;;;5094527;28;20444;-79
2023/04/18 04:14:30;;;;;;;24.60;22.90;;;9.30;99.90;;;;;;5082244;28;20458;-79
2023/04/18 04:16:59;;;;;;;24.90;23.27;;;9.30;99.90;;;;;;5089377;28;20811;-79
2023/04/18 04:19:28;;;;;;;26.10;24.40;;;9.30;1.00;;;;;;5093403;28;20450;-79
2023/04/18 04:21:56;;;;;;;25.30;23.50;;;9.30;99.90;;;;;;5075252;28;20462;-81
2023/04/18 04:24:24;;;;;;;25.30;23.60;;;9.30;99.90;;;;;;5097205;28;20473;-80
2023/04/18 04:26:53;;;;;;;24.73;23.03;;;9.30;99.90;;;;;;5092765;28;20463;-79
2023/04/18 04:29:22;;;;;;;25.87;24.00;;;9.30;1.00;;;;;;5092111;28;20950;-80
2023/04/18 04:31:50;;;;;;;25.23;23.50;;;9.30;48.70;;;;;;5094659;28;20827;-81
2023/04/18 04:34:20;;;;;;;26.03;24.00;;;9.30;99.90;;;;;;5095559;28;20454;-81
2023/04/18 04:36:49;;;;;;;24.30;22.87;;;9.30;99.90;;;;;;5097027;28;20523;-81
2023/04/18 04:39:18;;;;;;;25.00;23.50;;;9.40;1.00;;;;;;5092061;28;20951;-80
2023/04/18 04:41:46;;;;;;;26.23;24.43;;;9.40;1.00;;;;;;5095886;28;20494;-80
2023/04/18 04:44:16;;;;;;;24.83;23.40;;;9.40;99.90;;;;;;5089906;28;20469;-80
2023/04/18 04:46:45;;;;;;;26.93;24.77;;;9.40;30.30;;;;;;5092407;28;20540;-81
2023/04/18 04:49:13;;;;;;;25.37;23.63;;;9.40;99.90;;;;;;5096127;28;20832;-82
2023/04/18 04:51:43;;;;;;;25.30;23.43;;;9.40;1.00;;;;;;5093198;28;20464;-83
2023/04/18 04:54:11;;;;;;;27.10;25.00;;;9.30;75.00;;;;;;5076403;28;20448;-81
2023/04/18 04:56:39;;;;;;;25.97;24.13;;;9.30;59.90;;;;;;5095300;28;20982;-82
2023/04/18 04:59:08;;;;;;;25.70;23.93;;;9.30;41.80;;;;;;5095360;28;20479;-81
2023/04/18 05:01:36;;;;;;;25.37;23.73;;;9.30;1.00;;;;;;5091731;28;20497;-82
2023/04/18 05:04:04;;;;;;;25.37;23.87;;;9.30;99.90;;;;;;5094478;28;20821;-81
2023/04/18 05:06:33;;;;;;;27.20;25.30;;;9.30;4.50;;;;;;5085678;28;20459;-82
2023/04/18 05:09:02;;;;;;;26.53;24.33;;;9.30;99.90;;;;;;5091682;28;21061;-82
2023/04/18 05:11:30;;;;;;;25.30;23.60;;;9.30;99.90;;;;;;5093211;28;20445;-82
2023/04/18 05:13:58;;;;;;;26.67;24.77;;;9.30;99.90;;;;;;5073938;28;20449;-81
2023/04/18 05:16:26;;;;;;;26.03;24.33;;;9.40;99.90;;;;;;5093292;28;20604;-81
2023/04/18 05:18:55;;;;;;;26.17;24.50;;;9.40;1.00;;;;;;5093633;28;20473;-82
2023/04/18 05:21:24;;;;;;;26.47;24.67;;;9.30;1.00;;;;;;5093169;28;20472;-80
2023/04/18 05:23:52;;;;;;;27.70;25.57;;;9.30;99.90;;;;;;5094693;28;20452;-81
2023/04/18 05:26:23;;;;;;;25.83;24.00;;;9.40;48.00;;;;;;5099808;28;20529;-81
2023/04/18 05:28:51;;;;;;;25.40;23.57;;;9.30;1.00;;;;;;5096072;28;20575;-82
2023/04/18 05:31:19;;;;;;;26.03;24.33;;;9.30;1.00;;;;;;5094716;28;20477;-81
2023/04/18 05:33:47;;;;;;;25.07;23.40;;;9.40;1.00;;;;;;5096228;28;20452;-82
2023/04/18 05:36:16;;;;;;;25.27;23.57;;;9.40;1.00;;;;;;5097748;28;20476;-82
2023/04/18 05:38:44;;;;;;;25.93;24.13;;;9.40;1.00;;;;;;5116175;28;20483;-82
2023/04/18 05:41:12;;;;;;;26.20;24.40;;;9.40;35.20;;;;;;5110126;28;20538;-81
2023/04/18 05:43:41;;;;;;;25.67;23.93;;;9.40;1.00;;;;;;5106465;28;20492;-80
2023/04/18 05:46:15;;;;;;;27.50;25.70;;;9.30;1.00;;;;;;5105991;28;20457;-81
2023/04/18 05:48:43;;;;;;;25.37;23.67;;;9.40;58.20;;;;;;5101844;28;20499;-81
2023/04/18 05:51:11;;;;;;;26.87;24.50;;;9.40;99.90;;;;;;5099944;28;20457;-80
2023/04/18 05:53:40;;;;;;;25.70;24.10;;;9.40;1.00;;;;;;5104454;28;21034;-78
2023/04/18 05:56:08;;;;;;;26.30;24.40;;;9.40;10.00;;;;;;5105110;28;20497;-81
2023/04/18 05:58:36;;;;;;;25.73;23.70;;;9.40;99.90;;;;;;5105883;28;20464;-80
2023/04/18 06:01:06;;;;;;;26.20;24.10;;;9.40;85.10;;;;;;5102337;28;20523;-81
2023/04/18 06:03:35;;;;;;;25.13;23.23;;;9.40;1.00;;;;;;5094411;28;20583;-82
2023/04/18 06:06:04;;;;;;;28.23;26.03;;;9.40;1.00;;;;;;5094717;28;20437;-82
2023/04/18 06:08:32;;;;;;;29.57;27.17;;;9.40;54.80;;;;;;5095605;28;20829;-81
2023/04/18 06:11:00;;;;;;;27.80;25.67;;;9.50;1.00;;;;;;5098099;28;20450;-82
2023/04/18 06:13:28;;;;;;;45.17;40.87;;;9.50;1.00;;;;;;5099315;28;20454;-82
2023/04/18 06:15:56;;;;;;;50.90;46.10;;;9.50;1.00;;;;;;5096556;28;20455;-81
2023/04/18 06:18:26;;;;;;;38.30;35.30;;;9.50;1.00;;;;;;5096052;28;20473;-82
2023/04/18 06:20:54;;;;;;;29.80;27.60;;;9.50;1.00;;;;;;5095429;28;20568;-82
2023/04/18 06:23:23;;;;;;;27.20;25.40;;;9.50;1.00;;;;;;5096457;28;21034;-81
2023/04/18 06:25:51;;;;;;;26.23;24.27;;;9.50;1.00;;;;;;5093544;28;20543;-82
2023/04/18 06:28:19;;;;;;;27.10;25.00;;;9.60;1.00;;;;;;5095423;28;20490;-82
2023/04/18 06:30:48;;;;;;;27.53;25.47;;;9.60;1.00;;;;;;5096144;28;20454;-82
2023/04/18 06:33:16;;;;;;;28.30;26.20;;;9.60;1.00;;;;;;5094999;28;20454;-82
2023/04/18 06:35:46;;;;;;;25.17;23.57;;;9.60;1.00;;;;;;5093341;28;20994;-82
2023/04/18 06:38:14;;;;;;;25.83;24.00;;;9.70;1.00;;;;;;5093566;27;20486;-81
2023/04/18 06:40:42;;;;;;;23.43;22.03;;;9.60;99.90;;;;;;5097974;27;20455;-82
2023/04/18 06:43:11;;;;;;;24.40;22.90;;;9.70;1.00;;;;;;5093333;28;20457;-81
2023/04/18 06:45:39;;;;;;;26.40;24.53;;;9.70;1.00;;;;;;5094997;28;20479;-81
2023/04/18 06:48:09;;;;;;;25.97;24.07;;;9.70;99.90;;;;;;5093878;28;20560;-82
2023/04/18 06:50:37;;;;;;;25.77;23.83;;;9.70;99.90;;;;;;5096418;28;20460;-82
2023/04/18 06:53:07;;;;;;;25.50;23.70;;;9.70;1.00;;;;;;5097742;28;20453;-82
2023/04/18 06:55:36;;;;;;;26.80;24.90;;;9.70;1.00;;;;;;5089237;28;20437;-81
2023/04/18 06:58:04;;;;;;;26.90;24.90;;;9.70;99.90;;;;;;5092928;27;20234;-82
2023/04/18 07:00:32;;;;;;;26.77;24.87;;;9.80;99.90;;;;;;5094129;28;20441;-82
2023/04/18 07:03:04;;;;;;;26.73;24.90;;;9.80;99.90;;;;;;5093013;28;21009;-81
2023/04/18 07:05:34;;;;;;;26.17;24.20;;;9.80;99.90;;;;;;5091693;28;20507;-81
2023/04/18 07:08:02;;;;;;;25.63;23.87;;;9.80;99.90;;;;;;5097134;27;20493;-81
2023/04/18 07:10:31;;;;;;;27.33;25.27;;;9.80;1.00;;;;;;5095381;28;20449;-81
2023/04/18 07:13:00;;;;;;;25.93;24.10;;;9.80;1.00;;;;;;5096355;28;20454;-81
2023/04/18 07:15:28;;;;;;;25.33;23.33;;;9.90;1.00;;;;;;5089445;27;20551;-83
2023/04/18 07:17:57;;;;;;;26.10;24.40;;;9.80;1.00;;;;;;5094225;28;20481;-82
2023/04/18 07:20:25;;;;;;;25.17;23.50;;;9.90;99.90;;;;;;5076067;28;20453;-82
2023/04/18 07:22:55;;;;;;;25.33;23.53;;;9.90;99.90;;;;;;5095929;27;20471;-82
2023/04/18 07:25:24;;;;;;;25.83;24.03;;;10.00;99.90;;;;;;5095395;28;20540;-83
2023/04/18 07:27:54;;;;;;;26.70;24.80;;;10.00;99.90;;;;;;5096154;28;21008;-83
2023/04/18 07:30:23;;;;;;;27.00;25.20;;;10.10;99.90;;;;;;5076411;28;20464;-81
2023/04/18 07:32:52;;;;;;;27.20;25.50;;;10.10;99.90;;;;;;5072374;28;20590;-81
2023/04/18 07:35:22;;;;;;;26.17;24.40;;;10.10;99.90;;;;;;5092948;28;20464;-83
2023/04/18 07:37:50;;;;;;;26.43;24.57;;;10.10;18.40;;;;;;5093691;28;20535;-82
2023/04/18 07:40:18;;;;;;;26.03;24.03;;;10.10;47.10;;;;;;5089293;28;20490;-83
2023/04/18 07:42:46;;;;;;;26.27;24.33;;;10.10;99.90;;;;;;5072049;28;21413;-83
2023/04/18 07:45:16;;;;;;;26.93;25.03;;;10.10;99.90;;;;;;5105088;28;20586;-83
2023/04/18 07:47:44;;;;;;;27.13;25.23;;;10.10;99.90;;;;;;5092536;28;20481;-83
2023/04/18 07:50:12;;;;;;;27.20;25.40;;;10.10;99.90;;;;;;5092889;28;20552;-84
2023/04/18 07:52:41;;;;;;;28.20;25.97;;;10.20;99.90;;;;;;5095425;28;20446;-83
2023/04/18 07:55:09;;;;;;;26.53;24.50;;;10.20;72.70;;;;;;5093721;28;20453;-83
2023/04/18 07:57:37;;;;;;;25.93;24.00;;;10.20;99.90;;;;;;5094661;28;20492;-83
2023/04/18 08:00:08;;;;;;;25.97;24.13;;;10.20;39.90;;;;;;5091316;28;20449;-83
2023/04/18 08:02:37;;;;;;;25.33;23.37;;;10.30;52.60;;;;;;5093087;28;20471;-83
2023/04/18 08:05:06;;;;;;;25.13;23.30;;;10.30;19.90;;;;;;5088700;28;20460;-83
2023/04/18 08:07:35;;;;;;;24.70;23.10;;;10.30;19.50;;;;;;5094212;27;20501;-83
2023/04/18 08:10:03;;;;;;;25.23;23.50;;;10.30;47.90;;;;;;5091943;28;20452;-83
2023/04/18 08:12:31;;;;;;;24.97;23.37;;;10.40;99.90;;;;;;5094974;28;20453;-83
2023/04/18 08:15:00;;;;;;;27.27;25.20;;;10.40;99.90;;;;;;5092857;28;20454;-83
2023/04/18 08:17:28;;;;;;;25.23;23.43;;;10.50;99.90;;;;;;5092300;28;20479;-82
2023/04/18 08:19:58;;;;;;;26.70;24.90;;;10.50;41.60;;;;;;5091144;28;20463;-82
2023/04/18 08:22:26;;;;;;;24.93;23.33;;;10.50;1.00;;;;;;5094417;27;20491;-83
2023/04/18 08:24:54;;;;;;;25.53;23.73;;;10.50;1.00;;;;;;5094773;28;20472;-82
2023/04/18 08:27:32;;;;;;;26.73;24.87;;;10.50;1.00;;;;;;5095983;28;21084;-83
2023/04/18 08:30:02;;;;;;;27.43;25.37;;;10.50;6.50;;;;;;5087352;28;20448;-81
2023/04/18 08:32:31;;;;;;;25.30;23.67;;;10.50;43.00;;;;;;5092129;28;20806;-81
2023/04/18 08:35:01;;;;;;;25.77;23.87;;;10.50;99.90;;;;;;5095587;28;20457;-82
2023/04/18 08:37:30;;;;;;;26.23;24.10;;;10.50;1.00;;;;;;5095879;28;21086;-82
2023/04/18 08:39:58;;;;;;;26.20;24.27;;;10.50;25.50;;;;;;5094567;28;20459;-82
2023/04/18 08:42:27;;;;;;;26.20;24.40;;;10.50;1.00;;;;;;5096246;28;20531;-82
2023/04/18 08:44:56;;;;;;;25.13;23.40;;;10.50;87.10;;;;;;5093234;28;20456;-83
2023/04/18 08:47:25;;;;;;;25.40;23.50;;;10.50;20.70;;;;;;5098100;28;20820;-85
2023/04/18 08:49:53;;;;;;;25.70;23.60;;;10.50;65.00;;;;;;5095604;28;20475;-85
2023/04/18 08:52:25;;;;;;;25.93;24.20;;;10.50;99.90;;;;;;5078541;28;20467;-85
2023/04/18 08:54:53;;;;;;;26.73;24.93;;;10.50;99.90;;;;;;5095337;28;20445;-84
2023/04/18 08:57:25;;;;;;;26.20;24.30;;;10.50;79.60;;;;;;5097205;28;20551;-84
2023/04/18 08:59:55;;;;;;;26.83;24.93;;;10.50;95.90;;;;;;5098020;28;20453;-85
2023/04/18 09:02:37;;;;;;;25.63;23.93;;;10.50;99.90;;;;;;5098708;28;20480;-84
2023/04/18 09:05:11;;;;;;;28.10;26.00;;;10.50;99.90;;;;;;5095508;28;20464;-86
2023/04/18 09:07:42;;;;;;;28.50;26.43;;;10.60;99.90;;;;;;5100181;28;20530;-84
2023/04/18 09:10:11;;;;;;;27.07;25.37;;;10.60;90.90;;;;;;5096343;28;20498;-84
2023/04/18 09:12:48;;;;;;;26.63;24.63;;;10.60;99.90;;;;;;5098931;28;20448;-84
2023/04/18 09:15:21;;;;;;;26.50;24.77;;;10.70;99.90;;;;;;5097945;27;21093;-84
2023/04/18 09:17:52;;;;;;;26.73;24.80;;;10.70;99.90;;;;;;5098876;28;20480;-84
2023/04/18 09:20:33;;;;;;;25.90;24.00;;;10.70;99.90;;;;;;5100864;27;21151;-85
2023/04/18 09:23:04;;;;;;;27.63;25.83;;;10.80;99.90;;;;;;5100510;28;21039;-85
2023/04/18 09:25:34;;;;;;;25.90;24.00;;;10.80;99.90;;;;;;5098270;28;20455;-84
2023/04/18 09:28:04;;;;;;;26.77;24.90;;;10.90;99.90;;;;;;5097618;28;20465;-85
2023/04/18 09:30:36;;;;;;;26.50;24.70;;;10.90;99.90;;;;;;5100759;27;20445;-84
2023/04/18 09:33:08;;;;;;;26.57;24.77;;;10.90;99.90;;;;;;5082728;28;20451;-84
2023/04/18 09:35:37;;;;;;;27.03;25.10;;;11.00;99.90;;;;;;5097567;28;20449;-85
2023/04/18 09:38:08;;;;;;;26.10;24.30;;;11.00;99.90;;;;;;5097810;28;20478;-84
2023/04/18 09:40:36;;;;;;;27.70;25.77;;;11.00;93.10;;;;;;5099617;28;20445;-83
2023/04/18 09:43:19;;;;;;;27.30;25.50;;;11.00;33.60;;;;;;5099376;28;20567;-84
2023/04/18 09:45:48;;;;;;;27.20;25.30;;;11.00;14.40;;;;;;5096370;28;20469;-84
2023/04/18 09:48:16;;;;;;;26.37;24.50;;;11.00;1.00;;;;;;5097417;27;21087;-85
2023/04/18 09:50:47;;;;;;;26.73;25.03;;;11.10;28.20;;;;;;5097327;28;20475;-84
2023/04/18 09:53:19;;;;;;;26.73;25.03;;;11.10;95.90;;;;;;5092588;28;20451;-85
2023/04/18 09:55:51;;;;;;;27.50;25.50;;;11.10;82.30;;;;;;5079179;28;21018;-85
2023/04/18 09:58:22;;;;;;;28.30;26.23;;;11.20;88.80;;;;;;5100480;28;20489;-85
2023/04/18 10:00:52;;;;;;;26.57;24.83;;;11.20;1.00;;;;;;5095586;28;20485;-85
2023/04/18 10:03:27;;;;;;;27.50;25.50;;;11.20;1.00;;;;;;5093114;28;20467;-85
2023/04/18 10:05:56;;;;;;;26.87;25.17;;;11.30;1.00;;;;;;5098915;27;20465;-85
2023/04/18 10:08:27;;;;;;;26.83;25.03;;;11.40;1.00;;;;;;5080432;28;20497;-85
2023/04/18 10:10:57;;;;;;;26.33;24.63;;;11.50;1.00;;;;;;5093980;28;20450;-85
2023/04/18 10:13:28;;;;;;;28.40;26.27;;;11.70;1.00;;;;;;5101154;28;20430;-85
2023/04/18 10:15:57;;;;;;;26.70;24.93;;;11.80;1.00;;;;;;5102162;27;20480;-84
2023/04/18 10:18:25;;;;;;;27.10;25.30;;;12.00;1.00;;;;;;5099608;28;20504;-85
2023/04/18 10:21:01;;;;;;;26.77;24.97;;;12.00;99.90;;;;;;5098850;27;20445;-85
2023/04/18 10:23:39;;;;;;;27.60;25.70;;;12.10;99.90;;;;;;5096694;27;20688;-84
2023/04/18 10:26:08;;;;;;;25.33;23.63;;;12.10;99.90;;;;;;5098681;28;20454;-85
2023/04/18 10:28:55;;;;;;;26.43;24.73;;;12.00;99.90;;;;;;5099184;27;21391;-84
2023/04/18 10:31:25;;;;;;;26.43;24.70;;;12.00;99.90;;;;;;5101972;27;20450;-86
2023/04/18 10:33:54;;;;;;;25.90;24.30;;;12.00;99.90;;;;;;5103123;28;20450;-84
2023/04/18 10:36:26;;;;;;;28.17;26.17;;;12.10;99.90;;;;;;5102000;28;20460;-85
2023/04/18 10:39:01;;;;;;;27.00;25.30;;;12.20;99.90;;;;;;5102271;27;20457;-84
2023/04/18 10:41:31;;;;;;;27.40;25.70;;;12.20;99.90;;;;;;5100525;28;20207;-85
2023/04/18 10:44:18;;;;;;;25.67;24.10;;;12.30;99.90;;;;;;5101633;28;20563;-85
2023/04/18 10:47:18;;;;;;;27.00;25.03;;;12.40;99.90;;;;;;5098134;28;20465;-84
2023/04/18 10:49:59;;;;;;;26.47;24.67;;;12.50;99.90;;;;;;5101071;27;20547;-86
2023/04/18 10:52:29;;;;;;;26.37;24.67;;;12.60;94.60;;;;;;5113339;28;20480;-81
2023/04/18 10:55:08;;;;;;;25.17;23.60;;;12.60;26.70;;;;;;5102958;28;20448;-82
2023/04/18 10:57:40;;;;;;;25.83;24.27;;;12.60;19.70;;;;;;5099024;28;20473;-81
2023/04/18 11:00:14;;;;;;;26.80;24.93;;;12.70;31.20;;;;;;5098588;28;20490;-81
2023/04/18 11:02:49;;;;;;;24.90;23.30;;;12.70;69.80;;;;;;5097978;28;20461;-81
2023/04/18 11:05:24;;;;;;;25.07;23.47;;;12.80;99.90;;;;;;5100100;28;20476;-81
2023/04/18 11:07:52;;;;;;;25.67;24.03;;;12.80;99.90;;;;;;5097344;28;20528;-81
2023/04/18 11:10:24;;;;;;;23.90;22.53;;;12.80;91.30;;;;;;5102575;28;20496;-81
2023/04/18 11:12:53;;;;;;;24.83;23.30;;;12.80;24.50;;;;;;5100586;28;20439;-81
2023/04/18 11:15:23;;;;;;;24.33;22.93;;;12.80;21.10;;;;;;5097113;28;20449;-81
2023/04/18 11:17:59;;;;;;;24.17;22.77;;;12.70;91.90;;;;;;5097598;28;20468;-80
2023/04/18 11:20:28;;;;;;;24.47;22.97;;;12.70;39.00;;;;;;5099503;28;20997;-81
2023/04/18 11:22:57;;;;;;;25.13;23.57;;;12.70;1.00;;;;;;5100265;28;20462;-80
2023/04/18 11:25:28;;;;;;;24.23;22.83;;;12.60;1.00;;;;;;5097693;28;20474;-85
2023/04/18 11:27:59;;;;;;;23.27;21.90;;;12.60;1.00;;;;;;5095345;28;20489;-85
2023/04/18 11:30:30;;;;;;;23.97;22.67;;;12.70;1.00;;;;;;5097525;28;20482;-84
2023/04/18 11:32:59;;;;;;;23.20;21.77;;;12.70;1.00;;;;;;5103286;28;20588;-86
2023/04/18 11:35:36;;;;;;;22.93;21.73;;;12.70;1.00;;;;;;5090781;28;20437;-85
2023/04/18 11:38:05;;;;;;;22.80;21.57;;;12.80;1.00;;;;;;5105698;28;20493;-84
2023/04/18 11:40:36;;;;;;;24.50;22.77;;;12.80;1.00;;;;;;5105195;28;20463;-85
2023/04/18 11:43:06;;;;;;;23.70;22.30;;;12.80;1.00;;;;;;5108154;28;20455;-83
2023/04/18 11:45:34;;;;;;;23.60;22.27;;;12.80;1.00;;;;;;5098388;28;20470;-84
2023/04/18 11:48:03;;;;;;;23.37;22.07;;;12.60;1.00;;;;;;5096910;27;20603;-85
2023/04/18 11:50:36;;;;;;;24.63;23.13;;;12.70;1.00;;;;;;5095057;28;20500;-85
2023/04/18 11:53:04;;;;;;;24.90;23.67;;;12.80;1.00;;;;;;5084185;28;20450;-85
2023/04/18 11:55:33;;;;;;;23.10;21.83;;;12.90;1.00;;;;;;5093354;28;20452;-84
2023/04/18 11:58:03;;;;;;;23.63;22.13;;;12.90;1.00;;;;;;5096264;28;20485;-85
2023/04/18 12:00:33;;;;;;;22.57;21.37;;;12.90;1.00;;;;;;5094168;28;20976;-85
2023/04/18 12:03:04;;;;;;;22.80;21.50;;;12.90;1.00;;;;;;5096658;28;21041;-85
2023/04/18 12:05:34;;;;;;;22.20;21.10;;;12.80;1.00;;;;;;5089283;28;20552;-84
2023/04/18 12:08:07;;;;;;;23.00;21.80;;;12.80;1.00;;;;;;5098862;28;20543;-84
2023/04/18 12:10:35;;;;;;;20.73;19.63;;;12.80;1.00;;;;;;5095448;28;20454;-85
2023/04/18 12:13:08;;;;;;;22.10;21.00;;;12.70;1.00;;;;;;5095189;28;20453;-84
2023/04/18 12:15:42;;;;;;;21.27;20.07;;;12.70;1.00;;;;;;5093336;28;20444;-85
2023/04/18 12:18:12;;;;;;;21.37;20.20;;;12.70;1.00;;;;;;5097836;28;20460;-84
2023/04/18 12:20:45;;;;;;;21.80;20.70;;;12.70;1.00;;;;;;5093222;28;20459;-84
2023/04/18 12:23:29;;;;;;;21.60;20.30;;;12.80;1.00;;;;;;5082937;28;20462;-85
2023/04/18 12:26:02;;;;;;;21.33;20.13;;;12.90;1.00;;;;;;5097490;28;20970;-84
2023/04/18 12:28:33;;;;;;;24.50;22.80;;;12.80;1.00;;;;;;5092045;28;20486;-84
2023/04/18 12:31:01;;;;;;;22.57;21.37;;;13.00;1.00;;;;;;5095228;28;20587;-84
2023/04/18 12:33:30;;;;;;;22.00;20.47;;;12.90;1.00;;;;;;5097725;28;20442;-84
2023/04/18 12:35:59;;;;;;;21.73;20.53;;;13.00;1.00;;;;;;5103851;27;20449;-85
2023/04/18 12:38:27;;;;;;;21.93;20.53;;;13.00;1.00;;;;;;5100697;27;20472;-85
2023/04/18 12:40:56;;;;;;;21.80;20.60;;;13.00;1.00;;;;;;5101457;28;20540;-84
2023/04/18 12:43:24;;;;;;;21.87;20.77;;;13.00;1.00;;;;;;5082556;27;20545;-83
2023/04/18 12:45:54;;;;;;;21.30;20.00;;;12.90;1.00;;;;;;5083576;28;20481;-84
2023/04/18 12:48:22;;;;;;;22.23;21.07;;;12.90;1.00;;;;;;5100099;27;20480;-83